createdAt,value
2023-02-28T00:00:30.973Z,7.20
2023-02-28T00:01:31.395Z,6.50
2023-02-28T00:02:30.999Z,6.60
2023-02-28T00:03:31.054Z,7.10
2023-02-28T00:04:30.917Z,6.60
2023-02-28T00:05:30.911Z,6.60
2023-02-28T00:06:30.898Z,6.90
2023-02-28T00:07:30.878Z,6.70
2023-02-28T00:08:30.870Z,6.60
2023-02-28T00:09:30.856Z,7.50
2023-02-28T00:10:30.871Z,7.20
2023-02-28T00:11:31.169Z,7.40
2023-02-28T00:12:30.843Z,6.90
2023-02-28T00:13:30.831Z,6.40
2023-02-28T00:14:30.805Z,6.30
2023-02-28T00:15:30.797Z,6.50
2023-02-28T00:16:30.845Z,6.20
2023-02-28T00:17:30.797Z,5.90
2023-02-28T00:18:31.661Z,5.90
2023-02-28T00:19:30.751Z,6.80
2023-02-28T00:20:30.753Z,6.20
2023-02-28T00:21:31.105Z,5.30
2023-02-28T00:22:30.746Z,6.40
2023-02-28T00:23:30.711Z,5.70
2023-02-28T00:24:30.709Z,5.90
2023-02-28T00:25:30.684Z,5.50
2023-02-28T00:26:30.669Z,5.80
2023-02-28T00:27:30.696Z,5.50
2023-02-28T00:28:30.664Z,5.50
2023-02-28T00:29:30.659Z,5.50
2023-02-28T00:30:30.659Z,5.40
2023-02-28T00:31:30.863Z,7.00
2023-02-28T00:32:30.642Z,5.20
2023-02-28T00:33:30.598Z,5.40
2023-02-28T00:34:30.608Z,5.20
2023-02-28T00:35:30.588Z,4.60
2023-02-28T00:36:30.575Z,5.20
2023-02-28T00:37:30.552Z,5.20
2023-02-28T00:38:30.569Z,5.00
2023-02-28T00:39:30.544Z,5.10
2023-02-28T00:40:30.514Z,5.10
2023-02-28T00:41:30.734Z,5.20
2023-02-28T00:42:30.521Z,5.40
2023-02-28T00:43:30.500Z,5.00
2023-02-28T00:44:30.476Z,5.00
2023-02-28T00:45:30.480Z,5.10
2023-02-28T00:46:30.495Z,5.20
2023-02-28T00:47:30.448Z,4.40
2023-02-28T00:48:30.429Z,5.00
2023-02-28T00:49:30.438Z,4.50
2023-02-28T00:50:30.418Z,4.30
2023-02-28T00:51:30.769Z,5.00
2023-02-28T00:52:30.388Z,4.30
2023-02-28T00:53:30.389Z,4.50
2023-02-28T00:54:30.402Z,4.20
2023-02-28T00:55:30.379Z,5.00
2023-02-28T00:56:30.347Z,4.80
2023-02-28T00:57:30.376Z,4.60
2023-02-28T00:58:30.334Z,4.30
2023-02-28T00:59:30.327Z,4.50
2023-02-28T01:00:30.340Z,4.70
2023-02-28T01:01:30.628Z,4.60
2023-02-28T01:02:30.290Z,4.60
2023-02-28T01:03:30.270Z,4.10
2023-02-28T01:04:30.293Z,5.00
2023-02-28T01:05:30.271Z,5.20
2023-02-28T01:06:30.242Z,4.40
2023-02-28T01:07:30.238Z,5.40
2023-02-28T01:08:30.221Z,4.70
2023-02-28T01:09:30.207Z,4.60
2023-02-28T01:10:30.207Z,4.30
2023-02-28T01:11:30.587Z,4.70
2023-02-28T01:12:31.101Z,4.40
2023-02-28T01:13:30.162Z,4.00
2023-02-28T01:14:30.159Z,4.70
2023-02-28T01:15:30.222Z,6.50
2023-02-28T01:16:30.142Z,4.20
2023-02-28T01:17:30.119Z,4.60
2023-02-28T01:18:30.125Z,3.90
2023-02-28T01:19:30.106Z,4.40
2023-02-28T01:20:30.106Z,4.70
2023-02-28T01:21:30.391Z,4.60
2023-02-28T01:22:30.086Z,4.40
2023-02-28T01:23:30.066Z,5.40
2023-02-28T01:24:30.051Z,5.30
2023-02-28T01:25:30.153Z,4.60
2023-02-28T01:26:30.018Z,4.50
2023-02-28T01:27:30.034Z,4.50
2023-02-28T01:28:30.012Z,4.60
2023-02-28T01:29:29.988Z,4.70
2023-02-28T01:30:29.979Z,4.20
2023-02-28T01:31:30.374Z,4.00
2023-02-28T01:32:29.971Z,5.00
2023-02-28T01:33:29.977Z,4.90
2023-02-28T01:34:29.936Z,5.10
2023-02-28T01:35:29.937Z,5.20
2023-02-28T01:36:29.945Z,5.30
2023-02-28T01:37:29.906Z,4.80
2023-02-28T01:38:29.892Z,5.40
2023-02-28T01:39:29.882Z,4.00
2023-02-28T01:40:29.885Z,4.80
2023-02-28T01:41:30.168Z,4.50
2023-02-28T01:42:29.860Z,4.40
2023-02-28T01:43:29.837Z,4.50
2023-02-28T01:44:29.824Z,4.20
2023-02-28T01:45:29.841Z,5.20
2023-02-28T01:46:29.835Z,4.50
2023-02-28T01:47:29.815Z,4.70
2023-02-28T01:48:29.812Z,4.40
2023-02-28T01:49:29.765Z,4.70
2023-02-28T01:50:29.762Z,4.40
2023-02-28T01:51:30.122Z,4.40
2023-02-28T01:52:29.768Z,4.00
2023-02-28T01:53:29.754Z,4.30
2023-02-28T01:54:29.732Z,4.90
2023-02-28T01:55:29.793Z,4.00
2023-02-28T01:56:29.706Z,4.20
2023-02-28T01:57:29.710Z,4.20
2023-02-28T01:58:29.686Z,4.40
2023-02-28T01:59:29.666Z,4.40
2023-02-28T02:00:29.669Z,4.50
2023-02-28T02:01:29.979Z,4.00
2023-02-28T02:02:29.716Z,4.00
2023-02-28T02:03:29.621Z,4.00
2023-02-28T02:04:29.649Z,4.40
2023-02-28T02:05:29.600Z,3.90
2023-02-28T02:06:29.622Z,4.40
2023-02-28T02:07:29.599Z,4.40
2023-02-28T02:08:29.564Z,3.60
2023-02-28T02:09:29.600Z,4.00
2023-02-28T02:10:29.547Z,3.80
2023-02-28T02:11:29.811Z,3.90
2023-02-28T02:12:29.547Z,4.00
2023-02-28T02:13:29.513Z,3.50
2023-02-28T02:14:29.504Z,3.70
2023-02-28T02:15:29.499Z,3.60
2023-02-28T02:16:29.478Z,3.50
2023-02-28T02:17:29.567Z,3.90
2023-02-28T02:18:29.483Z,3.60
2023-02-28T02:19:29.454Z,3.70
2023-02-28T02:20:29.435Z,3.60
2023-02-28T02:21:29.788Z,3.40
2023-02-28T02:22:29.416Z,3.90
2023-02-28T02:23:29.396Z,4.60
2023-02-28T02:24:29.403Z,3.40
2023-02-28T02:25:29.383Z,3.80
2023-02-28T02:26:29.387Z,3.80
2023-02-28T02:27:29.386Z,3.90
2023-02-28T02:28:29.377Z,3.40
2023-02-28T02:29:29.337Z,3.80
2023-02-28T02:30:29.335Z,4.20
2023-02-28T02:31:29.813Z,3.40
2023-02-28T02:32:29.396Z,4.70
2023-02-28T02:33:29.301Z,4.60
2023-02-28T02:34:29.317Z,4.90
2023-02-28T02:35:29.297Z,3.80
2023-02-28T02:36:29.259Z,3.30
2023-02-28T02:37:29.300Z,3.40
2023-02-28T02:38:29.248Z,3.50
2023-02-28T02:39:29.241Z,4.50
2023-02-28T02:40:29.217Z,3.10
2023-02-28T02:41:29.615Z,3.20
2023-02-28T02:42:29.235Z,3.50
2023-02-28T02:43:29.222Z,3.30
2023-02-28T02:44:29.175Z,3.40
2023-02-28T02:45:29.159Z,3.50
2023-02-28T02:46:29.197Z,3.20
2023-02-28T02:47:29.161Z,3.40
2023-02-28T02:48:29.186Z,4.30
2023-02-28T02:49:29.118Z,3.40
2023-02-28T02:50:29.130Z,3.60
2023-02-28T02:51:29.426Z,2.90
2023-02-28T02:52:29.091Z,3.20
2023-02-28T02:53:29.095Z,3.70
2023-02-28T02:54:29.098Z,3.30
2023-02-28T02:55:29.049Z,3.70
2023-02-28T02:56:29.047Z,3.20
2023-02-28T02:57:29.045Z,3.30
2023-02-28T02:58:29.026Z,3.30
2023-02-28T02:59:29.024Z,3.10
2023-02-28T03:00:29.023Z,3.90
2023-02-28T03:01:29.642Z,3.30
2023-02-28T03:02:28.982Z,3.70
2023-02-28T03:03:29.013Z,3.00
2023-02-28T03:04:28.986Z,4.70
2023-02-28T03:05:28.952Z,3.30
2023-02-28T03:06:29.002Z,2.70
2023-02-28T03:07:28.929Z,3.10
2023-02-28T03:08:28.992Z,3.40
2023-02-28T03:09:28.944Z,3.10
2023-02-28T03:10:28.910Z,3.20
2023-02-28T03:11:29.240Z,2.80
2023-02-28T03:12:28.902Z,3.20
2023-02-28T03:13:28.880Z,2.80
2023-02-28T03:14:29.812Z,3.00
2023-02-28T03:15:28.849Z,3.10
2023-02-28T03:16:28.865Z,3.20
2023-02-28T03:17:28.834Z,3.30
2023-02-28T03:18:28.878Z,2.90
2023-02-28T03:19:28.805Z,2.60
2023-02-28T03:20:28.858Z,2.80
2023-02-28T03:21:29.215Z,2.90
2023-02-28T03:22:28.784Z,2.50
2023-02-28T03:23:28.772Z,2.80
2023-02-28T03:24:28.848Z,2.80
2023-02-28T03:25:28.749Z,2.90
2023-02-28T03:26:28.760Z,2.70
2023-02-28T03:27:28.714Z,3.00
2023-02-28T03:28:28.724Z,2.50
2023-02-28T03:29:28.722Z,2.90
2023-02-28T03:30:28.685Z,3.10
2023-02-28T03:31:29.045Z,2.70
2023-02-28T03:32:28.752Z,2.60
2023-02-28T03:33:28.677Z,2.70
2023-02-28T03:34:28.684Z,2.70
2023-02-28T03:35:28.720Z,3.60
2023-02-28T03:36:28.629Z,3.10
2023-02-28T03:37:28.637Z,3.70
2023-02-28T03:38:28.622Z,3.30
2023-02-28T03:39:28.616Z,3.40
2023-02-28T03:40:28.596Z,3.60
2023-02-28T03:41:28.911Z,3.30
2023-02-28T03:42:28.612Z,3.10
2023-02-28T03:43:28.550Z,2.80
2023-02-28T03:44:28.552Z,2.90
2023-02-28T03:45:28.555Z,3.10
2023-02-28T03:46:28.525Z,2.80
2023-02-28T03:47:28.559Z,3.00
2023-02-28T03:48:28.498Z,3.30
2023-02-28T03:49:28.497Z,3.90
2023-02-28T03:50:28.509Z,2.60
2023-02-28T03:51:28.790Z,2.50
2023-02-28T03:52:28.491Z,3.20
2023-02-28T03:53:28.470Z,3.40
2023-02-28T03:54:28.431Z,2.80
2023-02-28T03:55:28.432Z,3.20
2023-02-28T03:56:28.411Z,2.60
2023-02-28T03:57:28.399Z,2.80
2023-02-28T03:58:28.460Z,2.70
2023-02-28T03:59:28.415Z,2.80
2023-02-28T04:00:28.380Z,2.60
2023-02-28T04:01:28.813Z,2.60
2023-02-28T04:02:28.355Z,2.70
2023-02-28T04:03:28.348Z,2.80
2023-02-28T04:04:28.355Z,2.80
2023-02-28T04:05:28.299Z,3.20
2023-02-28T04:06:28.320Z,2.80
2023-02-28T04:07:28.317Z,2.70
2023-02-28T04:08:28.297Z,3.00
2023-02-28T04:09:28.299Z,3.20
2023-02-28T04:10:28.258Z,2.80
2023-02-28T04:11:28.540Z,2.80
2023-02-28T04:12:28.231Z,2.60
2023-02-28T04:13:28.246Z,2.60
2023-02-28T04:14:28.234Z,3.00
2023-02-28T04:15:28.214Z,3.30
2023-02-28T04:16:35.042Z,3.20
2023-02-28T04:17:29.182Z,2.80
2023-02-28T04:18:28.176Z,2.80
2023-02-28T04:19:28.167Z,2.90
2023-02-28T04:20:28.144Z,3.80
2023-02-28T04:21:28.235Z,3.10
2023-02-28T04:22:28.138Z,3.80
2023-02-28T04:23:28.130Z,3.10
2023-02-28T04:24:28.092Z,3.30
2023-02-28T04:25:28.090Z,2.90
2023-02-28T04:26:28.091Z,3.50
2023-02-28T04:27:28.110Z,3.30
2023-02-28T04:28:28.059Z,3.40
2023-02-28T04:29:28.053Z,3.10
2023-02-28T04:30:28.028Z,3.00
2023-02-28T04:31:28.612Z,3.30
2023-02-28T04:32:28.058Z,4.00
2023-02-28T04:33:28.022Z,3.90
2023-02-28T04:34:27.994Z,3.90
2023-02-28T04:35:28.030Z,4.40
2023-02-28T04:36:28.030Z,3.50
2023-02-28T04:37:27.971Z,4.60
2023-02-28T04:38:27.952Z,3.60
2023-02-28T04:39:27.942Z,3.90
2023-02-28T04:40:27.948Z,3.50
2023-02-28T04:41:30.325Z,3.10
2023-02-28T04:42:27.911Z,3.30
2023-02-28T04:43:27.929Z,4.30
2023-02-28T04:44:27.888Z,4.40
2023-02-28T04:45:27.889Z,3.60
2023-02-28T04:46:27.875Z,4.30
2023-02-28T04:47:27.851Z,3.70
2023-02-28T04:48:27.867Z,4.40
2023-02-28T04:49:27.836Z,3.70
2023-02-28T04:50:27.815Z,3.40
2023-02-28T04:51:28.266Z,3.40
2023-02-28T04:52:27.804Z,4.90
2023-02-28T04:53:27.799Z,4.20
2023-02-28T04:54:27.779Z,3.90
2023-02-28T04:55:27.776Z,3.70
2023-02-28T04:56:27.747Z,3.40
2023-02-28T04:57:27.738Z,3.60
2023-02-28T04:58:27.743Z,3.90
2023-02-28T04:59:27.721Z,3.80
2023-02-28T05:00:27.707Z,3.40
2023-02-28T05:01:28.114Z,3.30
2023-02-28T05:02:27.740Z,3.70
2023-02-28T05:03:28.128Z,3.90
2023-02-28T05:04:27.704Z,3.50
2023-02-28T05:05:27.659Z,2.90
2023-02-28T05:06:27.646Z,3.70
2023-02-28T05:07:27.636Z,3.90
2023-02-28T05:08:27.639Z,3.80
2023-02-28T05:09:27.605Z,3.60
2023-02-28T05:10:27.601Z,3.90
2023-02-28T05:11:27.921Z,4.20
2023-02-28T05:12:27.585Z,3.90
2023-02-28T05:13:27.578Z,4.30
2023-02-28T05:14:27.544Z,4.00
2023-02-28T05:15:27.548Z,3.40
2023-02-28T05:16:27.538Z,4.10
2023-02-28T05:17:27.521Z,4.90
2023-02-28T05:18:27.649Z,4.10
2023-02-28T05:19:27.496Z,3.50
2023-02-28T05:20:27.489Z,3.20
2023-02-28T05:21:27.857Z,4.20
2023-02-28T05:22:27.479Z,4.70
2023-02-28T05:23:27.471Z,3.80
2023-02-28T05:24:27.450Z,5.40
2023-02-28T05:25:27.432Z,3.30
2023-02-28T05:26:27.524Z,3.70
2023-02-28T05:27:27.407Z,3.90
2023-02-28T05:28:27.421Z,3.90
2023-02-28T05:29:27.393Z,3.70
2023-02-28T05:30:27.384Z,3.60
2023-02-28T05:31:27.874Z,3.50
2023-02-28T05:32:27.427Z,2.90
2023-02-28T05:33:27.357Z,3.90
2023-02-28T05:34:27.348Z,3.60
2023-02-28T05:35:27.357Z,3.50
2023-02-28T05:36:27.309Z,3.30
2023-02-28T05:37:27.344Z,3.90
2023-02-28T05:38:27.325Z,3.90
2023-02-28T05:39:27.283Z,4.10
2023-02-28T05:40:27.284Z,5.20
2023-02-28T05:41:27.992Z,3.70
2023-02-28T05:42:27.288Z,3.80
2023-02-28T05:43:27.269Z,6.20
2023-02-28T05:44:27.223Z,5.30
2023-02-28T05:45:27.226Z,3.80
2023-02-28T05:46:27.207Z,4.00
2023-02-28T05:47:27.205Z,4.10
2023-02-28T05:48:27.252Z,4.10
2023-02-28T05:49:27.192Z,3.80
2023-02-28T05:50:27.160Z,3.30
2023-02-28T05:51:27.461Z,4.10
2023-02-28T05:52:27.148Z,4.90
2023-02-28T05:53:27.161Z,6.20
2023-02-28T05:54:27.130Z,4.70
2023-02-28T05:55:27.112Z,4.10
2023-02-28T05:56:27.092Z,5.00
2023-02-28T05:57:27.097Z,4.30
2023-02-28T05:58:27.099Z,4.40
2023-02-28T05:59:27.078Z,4.00
2023-02-28T06:00:27.058Z,5.40
2023-02-28T06:01:27.213Z,4.60
2023-02-28T06:02:27.046Z,4.00
2023-02-28T06:03:27.162Z,5.10
2023-02-28T06:04:31.963Z,5.00
2023-02-28T06:05:28.009Z,5.50
2023-02-28T06:06:27.069Z,4.50
2023-02-28T06:07:26.997Z,5.90
2023-02-28T06:08:27.001Z,6.20
2023-02-28T06:09:26.980Z,11.50
2023-02-28T06:10:26.952Z,11.70
2023-02-28T06:11:27.233Z,9.40
2023-02-28T06:12:26.929Z,11.30
2023-02-28T06:13:26.948Z,14.10
2023-02-28T06:14:26.920Z,15.80
2023-02-28T06:15:26.911Z,16.90
2023-02-28T06:16:26.917Z,16.70
2023-02-28T06:17:26.908Z,23.70
2023-02-28T06:18:26.899Z,27.00
2023-02-28T06:19:26.941Z,22.80
2023-02-28T06:20:26.843Z,19.40
2023-02-28T06:21:26.934Z,18.60
2023-02-28T06:22:26.838Z,17.50
2023-02-28T06:23:26.871Z,14.50
2023-02-28T06:24:26.823Z,13.80
2023-02-28T06:25:26.795Z,13.30
2023-02-28T06:26:26.790Z,11.10
2023-02-28T06:27:36.481Z,12.50
2023-02-28T06:28:26.764Z,14.20
2023-02-28T06:29:26.751Z,12.60
2023-02-28T06:30:26.732Z,9.20
2023-02-28T06:31:26.897Z,12.90
2023-02-28T06:32:26.730Z,10.50
2023-02-28T06:33:26.732Z,10.10
2023-02-28T06:34:26.719Z,10.50
2023-02-28T06:35:26.704Z,6.90
2023-02-28T06:36:26.765Z,10.20
2023-02-28T06:37:26.666Z,7.80
2023-02-28T06:38:26.695Z,7.80
2023-02-28T06:39:26.676Z,5.90
2023-02-28T06:40:26.678Z,7.00
2023-02-28T06:41:26.658Z,7.40
2023-02-28T06:42:26.600Z,8.40
2023-02-28T06:43:26.620Z,6.60
2023-02-28T06:44:26.592Z,6.20
2023-02-28T06:45:26.606Z,8.80
2023-02-28T06:46:26.586Z,7.70
2023-02-28T06:47:26.553Z,7.60
2023-02-28T06:48:26.550Z,6.90
2023-02-28T06:49:26.544Z,5.90
2023-02-28T06:50:26.525Z,7.30
2023-02-28T06:51:26.578Z,7.10
2023-02-28T06:52:26.510Z,7.30
2023-02-28T06:53:26.485Z,6.80
2023-02-28T06:54:26.485Z,6.60
2023-02-28T06:55:26.483Z,7.40
2023-02-28T06:56:26.469Z,8.10
2023-02-28T06:57:26.469Z,9.10
2023-02-28T06:58:26.441Z,5.40
2023-02-28T06:59:26.475Z,5.40
2023-02-28T07:00:26.416Z,7.40
2023-02-28T07:01:26.444Z,5.20
2023-02-28T07:02:26.410Z,6.30
2023-02-28T07:03:26.408Z,5.60
2023-02-28T07:04:26.414Z,5.00
2023-02-28T07:05:26.369Z,6.50
2023-02-28T07:06:26.350Z,7.10
2023-02-28T07:07:26.338Z,5.00
2023-02-28T07:08:26.325Z,6.70
2023-02-28T07:09:26.345Z,5.30
2023-02-28T07:10:26.301Z,5.40
2023-02-28T07:11:26.420Z,4.70
2023-02-28T07:12:26.305Z,4.70
2023-02-28T07:13:26.295Z,4.90
2023-02-28T07:14:26.259Z,5.40
2023-02-28T07:15:26.267Z,5.20
2023-02-28T07:16:26.313Z,4.80
2023-02-28T07:17:26.228Z,4.80
2023-02-28T07:18:26.220Z,5.00
2023-02-28T07:19:26.238Z,5.70
2023-02-28T07:20:26.193Z,6.30
2023-02-28T07:21:26.195Z,6.20
2023-02-28T07:22:26.173Z,6.90
2023-02-28T07:23:26.189Z,5.40
2023-02-28T07:24:26.151Z,6.40
2023-02-28T07:25:26.185Z,5.00
2023-02-28T07:26:26.129Z,5.20
2023-02-28T07:27:26.138Z,5.60
2023-02-28T07:28:26.109Z,4.90
2023-02-28T07:29:26.116Z,4.60
2023-02-28T07:30:26.120Z,5.00
2023-02-28T07:31:27.180Z,5.50
2023-02-28T07:32:26.108Z,4.00
2023-02-28T07:33:26.066Z,6.10
2023-02-28T07:34:26.041Z,4.90
2023-02-28T07:35:26.104Z,4.80
2023-02-28T07:36:26.041Z,5.80
2023-02-28T07:37:26.012Z,4.20
2023-02-28T07:38:25.997Z,5.10
2023-02-28T07:39:25.991Z,5.20
2023-02-28T07:40:25.986Z,4.80
2023-02-28T07:41:25.997Z,4.60
2023-02-28T07:42:25.995Z,4.20
2023-02-28T07:43:25.963Z,4.30
2023-02-28T07:44:25.962Z,4.60
2023-02-28T07:45:25.935Z,5.20
2023-02-28T07:46:25.977Z,5.30
2023-02-28T07:47:25.929Z,3.70
2023-02-28T07:48:25.932Z,4.50
2023-02-28T07:49:25.883Z,4.00
2023-02-28T07:50:27.157Z,5.50
2023-02-28T07:51:25.974Z,4.60
2023-02-28T07:52:25.861Z,4.00
2023-02-28T07:53:25.839Z,5.30
2023-02-28T07:54:25.845Z,5.80
2023-02-28T07:55:25.824Z,6.20
2023-02-28T07:56:25.811Z,5.30
2023-02-28T07:57:25.830Z,5.10
2023-02-28T07:58:25.796Z,4.20
2023-02-28T07:59:25.779Z,4.40
2023-02-28T08:00:25.838Z,4.00
2023-02-28T08:01:25.851Z,4.00
2023-02-28T08:02:25.776Z,3.80
2023-02-28T08:03:25.741Z,4.60
2023-02-28T08:04:25.733Z,4.60
2023-02-28T08:05:25.753Z,4.20
2023-02-28T08:06:25.707Z,4.60
2023-02-28T08:07:25.702Z,4.40
2023-02-28T08:08:25.712Z,4.00
2023-02-28T08:09:25.698Z,5.30
2023-02-28T08:10:25.670Z,5.90
2023-02-28T08:11:25.663Z,4.20
2023-02-28T08:12:25.748Z,4.40
2023-02-28T08:13:25.620Z,4.00
2023-02-28T08:14:25.611Z,5.80
2023-02-28T08:15:25.603Z,5.00
2023-02-28T08:16:25.630Z,5.40
2023-02-28T08:17:25.615Z,4.20
2023-02-28T08:18:25.570Z,4.90
2023-02-28T08:19:25.566Z,7.00
2023-02-28T08:20:25.592Z,6.10
2023-02-28T08:21:25.542Z,4.90
2023-02-28T08:22:25.525Z,6.30
2023-02-28T08:23:25.533Z,6.10
2023-02-28T08:24:25.509Z,5.20
2023-02-28T08:25:25.500Z,6.40
2023-02-28T08:26:25.483Z,5.50
2023-02-28T08:27:25.501Z,5.00
2023-02-28T08:28:27.277Z,5.60
2023-02-28T08:29:25.466Z,4.90
2023-02-28T08:30:25.510Z,4.90
2023-02-28T08:31:25.474Z,6.90
2023-02-28T08:32:30.072Z,7.90
2023-02-28T08:33:26.422Z,5.40
2023-02-28T08:34:25.440Z,6.40
2023-02-28T08:35:25.435Z,6.00
2023-02-28T08:36:25.397Z,6.90
2023-02-28T08:37:25.383Z,7.40
2023-02-28T08:38:25.409Z,6.30
2023-02-28T08:39:25.342Z,6.30
2023-02-28T08:40:25.355Z,6.30
2023-02-28T08:41:25.323Z,6.90
2023-02-28T08:42:25.336Z,4.80
2023-02-28T08:43:25.292Z,5.50
2023-02-28T08:44:25.301Z,5.40
2023-02-28T08:45:25.334Z,6.60
2023-02-28T08:46:25.269Z,5.60
2023-02-28T08:47:25.269Z,4.80
2023-02-28T08:48:25.256Z,4.40
2023-02-28T08:49:25.245Z,5.40
2023-02-28T08:50:25.313Z,5.50
2023-02-28T08:51:25.256Z,5.50
2023-02-28T08:52:25.262Z,4.80
2023-02-28T08:53:25.191Z,4.90
2023-02-28T08:54:25.177Z,4.30
2023-02-28T08:55:25.160Z,5.30
2023-02-28T08:56:25.154Z,4.90
2023-02-28T08:57:25.178Z,5.90
2023-02-28T08:58:25.128Z,4.70
2023-02-28T08:59:25.115Z,3.90
2023-02-28T09:00:25.120Z,3.90
2023-02-28T09:01:25.147Z,4.80
2023-02-28T09:02:25.119Z,4.50
2023-02-28T09:03:25.397Z,6.40
2023-02-28T09:04:25.403Z,5.10
2023-02-28T09:05:25.055Z,3.70
2023-02-28T09:06:25.036Z,5.10
2023-02-28T09:07:25.060Z,4.70
2023-02-28T09:08:25.024Z,3.90
2023-02-28T09:09:25.012Z,4.60
2023-02-28T09:10:25.094Z,4.70
2023-02-28T09:11:24.987Z,3.70
2023-02-28T09:12:25.001Z,3.60
2023-02-28T09:13:24.980Z,3.70
2023-02-28T09:14:24.978Z,4.30
2023-02-28T09:15:24.947Z,4.40
2023-02-28T09:16:24.979Z,4.00
2023-02-28T09:17:25.227Z,3.00
2023-02-28T09:18:25.926Z,4.60
2023-02-28T09:19:24.928Z,4.50
2023-02-28T09:20:24.920Z,3.90
2023-02-28T09:21:24.884Z,3.20
2023-02-28T09:22:24.904Z,3.90
2023-02-28T09:23:24.856Z,5.50
2023-02-28T09:24:24.881Z,3.40
2023-02-28T09:25:24.842Z,4.40
2023-02-28T09:26:24.828Z,3.90
2023-02-28T09:27:24.846Z,4.60
2023-02-28T09:28:24.825Z,5.40
2023-02-28T09:29:24.813Z,6.10
2023-02-28T09:30:24.791Z,6.60
2023-02-28T09:31:24.797Z,7.20
2023-02-28T09:32:24.797Z,6.30
2023-02-28T09:33:24.748Z,6.50
2023-02-28T09:34:24.923Z,6.00
2023-02-28T09:35:24.729Z,8.20
2023-02-28T09:36:28.980Z,6.40
2023-02-28T09:37:25.710Z,5.90
2023-02-28T09:38:24.691Z,6.50
2023-02-28T09:39:24.729Z,5.60
2023-02-28T09:40:24.694Z,6.70
2023-02-28T09:41:24.665Z,7.10
2023-02-28T09:42:24.684Z,7.30
2023-02-28T09:43:24.651Z,4.70
2023-02-28T09:44:24.627Z,6.10
2023-02-28T09:45:25.640Z,5.80
2023-02-28T09:46:24.650Z,5.10
2023-02-28T09:47:24.654Z,6.00
2023-02-28T09:48:24.597Z,5.20
2023-02-28T09:49:24.583Z,4.80
2023-02-28T09:50:24.591Z,5.70
2023-02-28T09:51:24.606Z,4.70
2023-02-28T09:52:24.571Z,4.70
2023-02-28T09:53:24.545Z,5.50
2023-02-28T09:54:24.529Z,5.60
2023-02-28T09:55:24.506Z,4.30
2023-02-28T09:56:24.514Z,4.00
2023-02-28T09:57:24.517Z,5.40
2023-02-28T09:58:24.494Z,4.10
2023-02-28T09:59:24.464Z,3.60
2023-02-28T10:00:24.467Z,4.10
2023-02-28T10:01:24.451Z,4.90
2023-02-28T10:02:24.453Z,5.30
2023-02-28T10:03:24.428Z,4.80
2023-02-28T10:04:24.454Z,3.70
2023-02-28T10:05:24.409Z,4.00
2023-02-28T10:06:24.397Z,5.00
2023-02-28T10:07:24.393Z,5.60
2023-02-28T10:08:24.389Z,3.50
2023-02-28T10:09:24.371Z,4.20
2023-02-28T10:10:24.359Z,4.10
2023-02-28T10:11:24.346Z,5.30
2023-02-28T10:12:24.325Z,5.00
2023-02-28T10:13:24.338Z,4.90
2023-02-28T10:14:24.307Z,3.40
2023-02-28T10:15:24.302Z,3.80
2023-02-28T10:16:24.297Z,3.70
2023-02-28T10:17:24.282Z,4.20
2023-02-28T10:18:24.274Z,4.40
2023-02-28T10:19:24.248Z,4.30
2023-02-28T10:20:24.242Z,4.30
2023-02-28T10:21:24.242Z,3.80
2023-02-28T10:22:24.219Z,3.00
2023-02-28T10:23:24.221Z,3.60
2023-02-28T10:24:24.224Z,3.80
2023-02-28T10:25:24.187Z,3.60
2023-02-28T10:26:24.187Z,5.40
2023-02-28T10:27:24.175Z,3.90
2023-02-28T10:28:24.180Z,5.60
2023-02-28T10:29:24.162Z,3.60
2023-02-28T10:30:24.142Z,6.80
2023-02-28T10:31:26.279Z,5.10
2023-02-28T10:32:24.195Z,5.20
2023-02-28T10:33:24.227Z,5.10
2023-02-28T10:34:24.150Z,4.40
2023-02-28T10:35:24.124Z,5.20
2023-02-28T10:36:24.161Z,4.50
2023-02-28T10:37:24.058Z,5.10
2023-02-28T10:38:24.051Z,4.80
2023-02-28T10:39:24.029Z,5.00
2023-02-28T10:40:24.038Z,5.70
2023-02-28T10:41:24.018Z,4.80
2023-02-28T10:42:24.011Z,5.00
2023-02-28T10:43:23.993Z,4.50
2023-02-28T10:44:23.984Z,5.10
2023-02-28T10:45:23.984Z,3.80
2023-02-28T10:46:24.079Z,3.10
2023-02-28T10:47:23.957Z,4.20
2023-02-28T10:48:23.933Z,5.00
2023-02-28T10:49:23.950Z,5.20
2023-02-28T10:50:23.943Z,4.10
2023-02-28T10:51:23.924Z,3.30
2023-02-28T10:52:23.894Z,3.30
2023-02-28T10:53:23.871Z,4.10
2023-02-28T10:54:23.871Z,3.70
2023-02-28T10:55:23.889Z,5.00
2023-02-28T10:56:24.059Z,4.60
2023-02-28T10:57:23.847Z,4.00
2023-02-28T10:58:23.831Z,3.70
2023-02-28T10:59:23.829Z,4.10
2023-02-28T11:00:23.814Z,3.30
2023-02-28T11:01:24.142Z,3.80
2023-02-28T11:02:23.785Z,4.80
2023-02-28T11:03:23.785Z,4.40
2023-02-28T11:04:23.793Z,4.30
2023-02-28T11:05:23.755Z,4.20
2023-02-28T11:06:23.739Z,3.30
2023-02-28T11:07:24.547Z,3.90
2023-02-28T11:08:23.769Z,5.10
2023-02-28T11:09:23.737Z,4.10
2023-02-28T11:10:23.698Z,4.40
2023-02-28T11:11:23.721Z,4.20
2023-02-28T11:12:23.705Z,3.80
2023-02-28T11:13:23.665Z,5.50
2023-02-28T11:14:23.675Z,3.20
2023-02-28T11:15:23.646Z,3.40
2023-02-28T11:16:23.645Z,4.10
2023-02-28T11:17:23.625Z,3.10
2023-02-28T11:18:23.605Z,3.80
2023-02-28T11:19:23.593Z,4.80
2023-02-28T11:20:23.584Z,4.50
2023-02-28T11:21:23.573Z,4.00
2023-02-28T11:22:23.592Z,3.10
2023-02-28T11:23:23.550Z,3.10
2023-02-28T11:24:23.559Z,4.60
2023-02-28T11:25:23.524Z,3.50
2023-02-28T11:26:23.521Z,3.90
2023-02-28T11:27:23.523Z,4.40
2023-02-28T11:28:23.494Z,3.60
2023-02-28T11:29:23.498Z,3.80
2023-02-28T11:30:23.472Z,4.40
2023-02-28T11:31:23.716Z,4.80
2023-02-28T11:32:23.600Z,3.30
2023-02-28T11:33:23.446Z,4.20
2023-02-28T11:34:23.427Z,4.30
2023-02-28T11:35:23.417Z,4.10
2023-02-28T11:36:23.420Z,6.30
2023-02-28T11:37:23.443Z,5.60
2023-02-28T11:38:23.380Z,7.10
2023-02-28T11:39:23.381Z,5.60
2023-02-28T11:40:23.363Z,4.50
2023-02-28T11:41:23.359Z,4.00
2023-02-28T11:42:23.398Z,4.80
2023-02-28T11:43:24.018Z,5.60
2023-02-28T11:44:23.374Z,5.10
2023-02-28T11:45:23.305Z,8.30
2023-02-28T11:46:23.369Z,6.00
2023-02-28T11:47:23.567Z,5.50
2023-02-28T11:48:24.317Z,5.40
2023-02-28T11:49:23.269Z,4.90
2023-02-28T11:50:23.260Z,5.20
2023-02-28T11:51:23.243Z,4.70
2023-02-28T11:52:23.228Z,6.40
2023-02-28T11:53:23.219Z,5.80
2023-02-28T11:54:23.272Z,4.80
2023-02-28T11:55:23.254Z,4.90
2023-02-28T11:56:23.258Z,6.30
2023-02-28T11:57:23.177Z,4.50
2023-02-28T11:58:23.186Z,6.80
2023-02-28T11:59:23.182Z,4.60
2023-02-28T12:00:23.151Z,4.80
2023-02-28T12:01:23.143Z,5.80
2023-02-28T12:02:23.181Z,5.30
2023-02-28T12:03:23.200Z,5.00
2023-02-28T12:04:23.112Z,4.60
2023-02-28T12:05:23.096Z,6.10
2023-02-28T12:06:23.096Z,7.80
2023-02-28T12:07:23.078Z,5.70
2023-02-28T12:08:23.092Z,7.00
2023-02-28T12:09:23.094Z,5.40
2023-02-28T12:10:23.069Z,8.10
2023-02-28T12:11:23.036Z,7.60
2023-02-28T12:12:24.484Z,6.10
2023-02-28T12:13:23.089Z,6.50
2023-02-28T12:14:23.020Z,6.70
2023-02-28T12:15:23.006Z,5.30
2023-02-28T12:16:23.122Z,6.20
2023-02-28T12:17:22.978Z,5.90
2023-02-28T12:18:22.962Z,5.50
2023-02-28T12:19:22.967Z,4.90
2023-02-28T12:20:22.965Z,4.50
2023-02-28T12:21:22.942Z,4.40
2023-02-28T12:22:22.923Z,5.00
2023-02-28T12:23:22.919Z,4.80
2023-02-28T12:24:22.892Z,4.50
2023-02-28T12:25:22.919Z,4.40
2023-02-28T12:26:22.872Z,5.00
2023-02-28T12:27:23.422Z,5.10
2023-02-28T12:28:22.874Z,4.40
2023-02-28T12:29:22.848Z,4.70
2023-02-28T12:30:22.844Z,4.10
2023-02-28T12:31:22.891Z,4.50
2023-02-28T12:32:22.914Z,5.40
2023-02-28T12:33:22.858Z,5.60
2023-02-28T12:34:22.785Z,5.20
2023-02-28T12:35:22.868Z,4.90
2023-02-28T12:36:22.763Z,4.80
2023-02-28T12:37:22.766Z,4.10
2023-02-28T12:38:22.740Z,5.00
2023-02-28T12:39:24.096Z,4.70
2023-02-28T12:40:22.722Z,5.10
2023-02-28T12:41:22.727Z,6.70
2023-02-28T12:42:22.704Z,5.10
2023-02-28T12:43:22.685Z,4.60
2023-02-28T12:44:22.712Z,4.60
2023-02-28T12:45:22.718Z,4.40
2023-02-28T12:46:22.762Z,4.40
2023-02-28T12:47:22.642Z,4.60
2023-02-28T12:48:22.639Z,4.90
2023-02-28T12:49:22.656Z,4.00
2023-02-28T12:50:22.618Z,3.90
2023-02-28T12:51:22.604Z,4.80
2023-02-28T12:52:22.583Z,4.60
2023-02-28T12:53:22.600Z,3.80
2023-02-28T12:54:22.579Z,3.90
2023-02-28T12:55:22.572Z,4.80
2023-02-28T12:56:22.541Z,7.00
2023-02-28T12:57:22.542Z,6.30
2023-02-28T12:58:22.536Z,6.00
2023-02-28T12:59:22.513Z,7.10
2023-02-28T13:00:22.521Z,5.00
2023-02-28T13:01:22.505Z,5.60
2023-02-28T13:02:22.536Z,6.40
2023-02-28T13:03:22.466Z,6.00
2023-02-28T13:04:22.456Z,5.90
2023-02-28T13:05:22.467Z,5.70
2023-02-28T13:06:22.469Z,6.80
2023-02-28T13:07:22.435Z,5.10
2023-02-28T13:08:22.428Z,4.50
2023-02-28T13:09:22.403Z,5.60
2023-02-28T13:10:22.387Z,4.60
2023-02-28T13:11:22.412Z,4.80
2023-02-28T13:12:22.368Z,5.50
2023-02-28T13:13:22.367Z,4.90
2023-02-28T13:14:22.356Z,5.20
2023-02-28T13:15:22.445Z,5.90
2023-02-28T13:16:22.436Z,5.00
2023-02-28T13:17:22.352Z,5.80